sensor_id;sensor_type;location;lat;lon;timestamp;temperature;humidity
29849;DHT22;16728;50.832;5.590;2023-09-19T00:01:55;17.80;99.90
29849;DHT22;16728;50.832;5.590;2023-09-19T00:04:58;17.80;99.90
29849;DHT22;16728;50.832;5.590;2023-09-19T00:08:01;17.80;99.90
29849;DHT22;16728;50.832;5.590;2023-09-19T00:11:05;17.80;99.90
29849;DHT22;16728;50.832;5.590;2023-09-19T00:14:07;17.80;99.90
29849;DHT22;16728;50.832;5.590;2023-09-19T00:17:11;17.70;99.90
29849;DHT22;16728;50.832;5.590;2023-09-19T00:20:14;17.70;99.90
29849;DHT22;16728;50.832;5.590;2023-09-19T00:23:20;17.70;99.90
29849;DHT22;16728;50.832;5.590;2023-09-19T00:26:23;17.70;99.90
29849;DHT22;16728;50.832;5.590;2023-09-19T00:29:25;17.60;99.90
29849;DHT22;16728;50.832;5.590;2023-09-19T00:32:30;17.60;99.90
29849;DHT22;16728;50.832;5.590;2023-09-19T00:35:32;17.70;99.90
29849;DHT22;16728;50.832;5.590;2023-09-19T00:38:35;17.60;99.90
29849;DHT22;16728;50.832;5.590;2023-09-19T00:41:37;17.50;99.90
29849;DHT22;16728;50.832;5.590;2023-09-19T00:44:39;17.50;99.90
29849;DHT22;16728;50.832;5.590;2023-09-19T00:47:47;17.50;99.90
29849;DHT22;16728;50.832;5.590;2023-09-19T00:50:51;17.50;99.90
29849;DHT22;16728;50.832;5.590;2023-09-19T00:53:53;17.50;99.90
29849;DHT22;16728;50.832;5.590;2023-09-19T00:56:56;17.50;99.90
29849;DHT22;16728;50.832;5.590;2023-09-19T00:59:58;17.50;99.90
29849;DHT22;16728;50.832;5.590;2023-09-19T01:03:01;17.40;99.90
29849;DHT22;16728;50.832;5.590;2023-09-19T01:06:03;17.40;99.90
29849;DHT22;16728;50.832;5.590;2023-09-19T01:09:05;17.40;99.90
29849;DHT22;16728;50.832;5.590;2023-09-19T01:12:08;17.40;99.90
29849;DHT22;16728;50.832;5.590;2023-09-19T01:18:43;17.30;99.90
29849;DHT22;16728;50.832;5.590;2023-09-19T01:22:16;17.30;99.90
29849;DHT22;16728;50.832;5.590;2023-09-19T01:32:34;17.30;99.90
29849;DHT22;16728;50.832;5.590;2023-09-19T01:35:40;17.30;99.90
29849;DHT22;16728;50.832;5.590;2023-09-19T01:38:42;17.20;99.90
29849;DHT22;16728;50.832;5.590;2023-09-19T01:45:03;17.30;99.90
29849;DHT22;16728;50.832;5.590;2023-09-19T01:55:06;17.30;99.90
29849;DHT22;16728;50.832;5.590;2023-09-19T01:58:29;17.20;99.90
29849;DHT22;16728;50.832;5.590;2023-09-19T02:01:34;17.20;99.90
29849;DHT22;16728;50.832;5.590;2023-09-19T02:04:38;17.20;99.90
29849;DHT22;16728;50.832;5.590;2023-09-19T02:07:40;17.20;99.90
29849;DHT22;16728;50.832;5.590;2023-09-19T02:10:42;17.20;99.90
29849;DHT22;16728;50.832;5.590;2023-09-19T02:13:44;17.20;99.90
29849;DHT22;16728;50.832;5.590;2023-09-19T02:16:47;17.10;99.90
29849;DHT22;16728;50.832;5.590;2023-09-19T02:19:55;17.10;99.90
29849;DHT22;16728;50.832;5.590;2023-09-19T02:22:58;17.10;99.90
29849;DHT22;16728;50.832;5.590;2023-09-19T02:26:00;17.10;99.90
29849;DHT22;16728;50.832;5.590;2023-09-19T02:29:02;17.10;99.90
29849;DHT22;16728;50.832;5.590;2023-09-19T02:32:06;17.10;99.90
29849;DHT22;16728;50.832;5.590;2023-09-19T02:35:08;17.00;99.90
29849;DHT22;16728;50.832;5.590;2023-09-19T02:38:13;16.90;99.90
29849;DHT22;16728;50.832;5.590;2023-09-19T02:41:16;16.90;99.90
29849;DHT22;16728;50.832;5.590;2023-09-19T02:44:18;16.90;99.90
29849;DHT22;16728;50.832;5.590;2023-09-19T02:47:21;16.90;99.90
29849;DHT22;16728;50.832;5.590;2023-09-19T02:50:24;16.90;99.90
29849;DHT22;16728;50.832;5.590;2023-09-19T02:53:26;16.80;99.90
29849;DHT22;16728;50.832;5.590;2023-09-19T02:56:27;16.80;99.90
29849;DHT22;16728;50.832;5.590;2023-09-19T02:59:31;16.80;99.90
29849;DHT22;16728;50.832;5.590;2023-09-19T03:02:33;16.80;99.90
29849;DHT22;16728;50.832;5.590;2023-09-19T03:05:36;16.80;99.90
29849;DHT22;16728;50.832;5.590;2023-09-19T03:08:40;16.80;99.90
29849;DHT22;16728;50.832;5.590;2023-09-19T03:11:43;16.70;99.90
29849;DHT22;16728;50.832;5.590;2023-09-19T03:14:48;16.70;99.90
29849;DHT22;16728;50.832;5.590;2023-09-19T03:17:50;16.70;99.90
29849;DHT22;16728;50.832;5.590;2023-09-19T03:20:56;16.80;99.90
29849;DHT22;16728;50.832;5.590;2023-09-19T03:23:58;16.70;99.90
29849;DHT22;16728;50.832;5.590;2023-09-19T03:27:00;16.70;99.90
29849;DHT22;16728;50.832;5.590;2023-09-19T03:30:02;16.60;99.90
29849;DHT22;16728;50.832;5.590;2023-09-19T03:33:09;16.60;99.90
29849;DHT22;16728;50.832;5.590;2023-09-19T03:36:13;16.60;99.90
29849;DHT22;16728;50.832;5.590;2023-09-19T03:39:15;16.60;99.90
29849;DHT22;16728;50.832;5.590;2023-09-19T03:42:17;16.60;99.90
29849;DHT22;16728;50.832;5.590;2023-09-19T03:45:19;16.60;99.90
29849;DHT22;16728;50.832;5.590;2023-09-19T03:48:21;16.60;99.90
29849;DHT22;16728;50.832;5.590;2023-09-19T03:51:25;16.60;99.90
29849;DHT22;16728;50.832;5.590;2023-09-19T03:54:28;16.60;99.90
29849;DHT22;16728;50.832;5.590;2023-09-19T03:57:30;16.50;99.90
29849;DHT22;16728;50.832;5.590;2023-09-19T04:00:32;16.50;99.90
29849;DHT22;16728;50.832;5.590;2023-09-19T04:03:39;16.50;99.90
29849;DHT22;16728;50.832;5.590;2023-09-19T04:06:48;16.60;99.90
29849;DHT22;16728;50.832;5.590;2023-09-19T04:09:50;16.50;99.90
29849;DHT22;16728;50.832;5.590;2023-09-19T04:12:55;16.60;99.90
29849;DHT22;16728;50.832;5.590;2023-09-19T04:15:58;16.60;99.90
29849;DHT22;16728;50.832;5.590;2023-09-19T04:18:59;16.50;99.90
29849;DHT22;16728;50.832;5.590;2023-09-19T04:22:02;16.50;99.90
29849;DHT22;16728;50.832;5.590;2023-09-19T04:25:05;16.50;99.90
29849;DHT22;16728;50.832;5.590;2023-09-19T04:28:09;16.50;99.90
29849;DHT22;16728;50.832;5.590;2023-09-19T04:31:12;16.60;99.90
29849;DHT22;16728;50.832;5.590;2023-09-19T04:34:15;16.60;99.90
29849;DHT22;16728;50.832;5.590;2023-09-19T04:37:17;16.50;99.90
29849;DHT22;16728;50.832;5.590;2023-09-19T04:40:19;16.50;99.90
29849;DHT22;16728;50.832;5.590;2023-09-19T04:43:21;16.50;99.90
29849;DHT22;16728;50.832;5.590;2023-09-19T04:46:23;16.50;99.90
29849;DHT22;16728;50.832;5.590;2023-09-19T04:49:25;16.50;99.90
29849;DHT22;16728;50.832;5.590;2023-09-19T04:52:30;16.40;99.90
29849;DHT22;16728;50.832;5.590;2023-09-19T04:55:33;16.40;99.90
29849;DHT22;16728;50.832;5.590;2023-09-19T04:58:35;16.40;99.90
29849;DHT22;16728;50.832;5.590;2023-09-19T05:01:37;16.30;99.90
29849;DHT22;16728;50.832;5.590;2023-09-19T05:04:39;16.30;99.90
29849;DHT22;16728;50.832;5.590;2023-09-19T05:07:41;16.30;99.90
29849;DHT22;16728;50.832;5.590;2023-09-19T05:10:44;16.30;99.90
29849;DHT22;16728;50.832;5.590;2023-09-19T05:13:46;16.20;99.90
29849;DHT22;16728;50.832;5.590;2023-09-19T05:16:49;16.30;99.90
29849;DHT22;16728;50.832;5.590;2023-09-19T05:19:52;16.20;99.90
29849;DHT22;16728;50.832;5.590;2023-09-19T05:22:59;16.10;99.90
29849;DHT22;16728;50.832;5.590;2023-09-19T05:26:04;16.10;99.90
29849;DHT22;16728;50.832;5.590;2023-09-19T05:29:06;16.10;99.90
29849;DHT22;16728;50.832;5.590;2023-09-19T05:32:11;16.10;99.90
29849;DHT22;16728;50.832;5.590;2023-09-19T05:35:13;16.10;99.90
29849;DHT22;16728;50.832;5.590;2023-09-19T05:38:15;16.00;99.90
29849;DHT22;16728;50.832;5.590;2023-09-19T05:41:20;16.00;99.90
29849;DHT22;16728;50.832;5.590;2023-09-19T05:44:22;16.00;99.90
29849;DHT22;16728;50.832;5.590;2023-09-19T05:47:24;16.10;99.90
29849;DHT22;16728;50.832;5.590;2023-09-19T05:50:27;16.10;99.90
29849;DHT22;16728;50.832;5.590;2023-09-19T05:53:28;16.00;99.90
29849;DHT22;16728;50.832;5.590;2023-09-19T05:56:31;16.10;99.90
29849;DHT22;16728;50.832;5.590;2023-09-19T05:59:33;16.10;99.90
29849;DHT22;16728;50.832;5.590;2023-09-19T06:02:36;16.10;99.90
29849;DHT22;16728;50.832;5.590;2023-09-19T06:05:40;16.10;99.90
29849;DHT22;16728;50.832;5.590;2023-09-19T06:08:44;16.10;99.90
29849;DHT22;16728;50.832;5.590;2023-09-19T06:11:47;16.10;99.90
29849;DHT22;16728;50.832;5.590;2023-09-19T06:14:49;16.10;99.90
29849;DHT22;16728;50.832;5.590;2023-09-19T06:17:53;16.10;99.90
29849;DHT22;16728;50.832;5.590;2023-09-19T06:21:00;16.10;99.90
29849;DHT22;16728;50.832;5.590;2023-09-19T06:24:02;16.10;99.90
29849;DHT22;16728;50.832;5.590;2023-09-19T06:27:04;16.10;99.90
29849;DHT22;16728;50.832;5.590;2023-09-19T06:30:07;16.10;99.90
29849;DHT22;16728;50.832;5.590;2023-09-19T06:33:09;16.20;99.90
29849;DHT22;16728;50.832;5.590;2023-09-19T06:36:13;16.30;99.90
29849;DHT22;16728;50.832;5.590;2023-09-19T06:39:15;16.30;99.90
29849;DHT22;16728;50.832;5.590;2023-09-19T06:42:18;16.30;99.90
29849;DHT22;16728;50.832;5.590;2023-09-19T06:45:23;16.30;99.90
29849;DHT22;16728;50.832;5.590;2023-09-19T06:48:29;16.30;99.90
29849;DHT22;16728;50.832;5.590;2023-09-19T06:51:31;16.30;99.90
29849;DHT22;16728;50.832;5.590;2023-09-19T06:54:33;16.30;99.90
29849;DHT22;16728;50.832;5.590;2023-09-19T06:57:36;16.30;99.90
29849;DHT22;16728;50.832;5.590;2023-09-19T07:00:38;16.30;99.90
29849;DHT22;16728;50.832;5.590;2023-09-19T07:03:40;16.40;99.90
29849;DHT22;16728;50.832;5.590;2023-09-19T07:06:43;16.40;99.90
29849;DHT22;16728;50.832;5.590;2023-09-19T07:09:45;16.50;99.90
29849;DHT22;16728;50.832;5.590;2023-09-19T07:12:47;16.60;99.90
29849;DHT22;16728;50.832;5.590;2023-09-19T07:15:48;16.60;99.90
29849;DHT22;16728;50.832;5.590;2023-09-19T07:18:52;16.60;99.90
29849;DHT22;16728;50.832;5.590;2023-09-19T07:21:54;16.70;99.90
29849;DHT22;16728;50.832;5.590;2023-09-19T07:24:56;16.70;99.90
29849;DHT22;16728;50.832;5.590;2023-09-19T07:27:58;16.80;99.90
29849;DHT22;16728;50.832;5.590;2023-09-19T07:31:03;16.80;99.90
29849;DHT22;16728;50.832;5.590;2023-09-19T07:34:07;16.80;99.90
29849;DHT22;16728;50.832;5.590;2023-09-19T07:37:10;16.80;99.90
29849;DHT22;16728;50.832;5.590;2023-09-19T07:40:11;16.90;99.90
29849;DHT22;16728;50.832;5.590;2023-09-19T07:43:13;16.90;99.90
29849;DHT22;16728;50.832;5.590;2023-09-19T07:46:15;17.00;99.90
29849;DHT22;16728;50.832;5.590;2023-09-19T07:49:17;17.00;99.90
29849;DHT22;16728;50.832;5.590;2023-09-19T07:52:21;17.00;99.90
29849;DHT22;16728;50.832;5.590;2023-09-19T07:55:24;17.10;99.90
29849;DHT22;16728;50.832;5.590;2023-09-19T07:58:27;17.20;99.90
29849;DHT22;16728;50.832;5.590;2023-09-19T08:01:29;17.20;99.90
29849;DHT22;16728;50.832;5.590;2023-09-19T08:04:31;17.20;99.90
29849;DHT22;16728;50.832;5.590;2023-09-19T08:07:37;17.30;99.90
29849;DHT22;16728;50.832;5.590;2023-09-19T08:10:39;17.30;99.90
29849;DHT22;16728;50.832;5.590;2023-09-19T08:13:44;17.40;99.90
29849;DHT22;16728;50.832;5.590;2023-09-19T08:16:48;17.40;99.90
29849;DHT22;16728;50.832;5.590;2023-09-19T08:19:50;17.40;99.90
29849;DHT22;16728;50.832;5.590;2023-09-19T08:22:54;17.40;99.90
29849;DHT22;16728;50.832;5.590;2023-09-19T08:25:57;17.40;99.90
29849;DHT22;16728;50.832;5.590;2023-09-19T08:29:00;17.60;99.90
29849;DHT22;16728;50.832;5.590;2023-09-19T08:32:07;17.60;99.90
29849;DHT22;16728;50.832;5.590;2023-09-19T08:35:10;17.70;99.90
29849;DHT22;16728;50.832;5.590;2023-09-19T08:38:12;17.70;99.90
29849;DHT22;16728;50.832;5.590;2023-09-19T08:41:17;17.70;99.90
29849;DHT22;16728;50.832;5.590;2023-09-19T08:44:20;17.90;99.90
29849;DHT22;16728;50.832;5.590;2023-09-19T08:47:46;17.90;99.90
29849;DHT22;16728;50.832;5.590;2023-09-19T08:50:52;18.00;99.90
29849;DHT22;16728;50.832;5.590;2023-09-19T08:54:08;18.10;99.90
29849;DHT22;16728;50.832;5.590;2023-09-19T08:57:11;18.10;99.90
29849;DHT22;16728;50.832;5.590;2023-09-19T09:00:14;18.10;99.90
29849;DHT22;16728;50.832;5.590;2023-09-19T09:03:20;18.20;99.90
29849;DHT22;16728;50.832;5.590;2023-09-19T09:06:24;18.40;99.90
29849;DHT22;16728;50.832;5.590;2023-09-19T09:09:28;18.40;99.90
29849;DHT22;16728;50.832;5.590;2023-09-19T09:12:30;18.50;99.90
29849;DHT22;16728;50.832;5.590;2023-09-19T09:15:35;18.50;99.90
29849;DHT22;16728;50.832;5.590;2023-09-19T09:18:40;18.50;99.90
29849;DHT22;16728;50.832;5.590;2023-09-19T09:21:42;18.50;99.90
29849;DHT22;16728;50.832;5.590;2023-09-19T09:24:55;18.60;99.90
29849;DHT22;16728;50.832;5.590;2023-09-19T09:28:03;18.60;99.90
29849;DHT22;16728;50.832;5.590;2023-09-19T09:31:05;18.60;99.90
29849;DHT22;16728;50.832;5.590;2023-09-19T09:34:11;18.70;99.90
29849;DHT22;16728;50.832;5.590;2023-09-19T09:37:16;18.70;99.90
29849;DHT22;16728;50.832;5.590;2023-09-19T09:40:21;18.70;99.90
29849;DHT22;16728;50.832;5.590;2023-09-19T09:43:37;18.70;99.90
29849;DHT22;16728;50.832;5.590;2023-09-19T09:46:46;18.80;99.90
29849;DHT22;16728;50.832;5.590;2023-09-19T09:49:52;18.80;99.90
29849;DHT22;16728;50.832;5.590;2023-09-19T09:53:25;18.80;99.90
29849;DHT22;16728;50.832;5.590;2023-09-19T09:56:31;18.90;99.90
29849;DHT22;16728;50.832;5.590;2023-09-19T09:59:52;18.90;99.90
29849;DHT22;16728;50.832;5.590;2023-09-19T10:03:00;19.00;99.90
29849;DHT22;16728;50.832;5.590;2023-09-19T10:06:02;19.00;99.90
29849;DHT22;16728;50.832;5.590;2023-09-19T10:09:24;19.00;99.90
29849;DHT22;16728;50.832;5.590;2023-09-19T10:12:32;19.00;99.90
29849;DHT22;16728;50.832;5.590;2023-09-19T10:15:37;19.00;99.90
29849;DHT22;16728;50.832;5.590;2023-09-19T10:18:41;19.00;99.90
29849;DHT22;16728;50.832;5.590;2023-09-19T10:21:45;19.00;99.90
29849;DHT22;16728;50.832;5.590;2023-09-19T10:24:49;18.90;99.90
29849;DHT22;16728;50.832;5.590;2023-09-19T10:28:06;18.90;99.90
29849;DHT22;16728;50.832;5.590;2023-09-19T10:31:18;18.90;99.90
29849;DHT22;16728;50.832;5.590;2023-09-19T10:34:22;18.80;99.90
29849;DHT22;16728;50.832;5.590;2023-09-19T10:37:26;18.90;99.90
29849;DHT22;16728;50.832;5.590;2023-09-19T10:40:29;18.90;99.90
29849;DHT22;16728;50.832;5.590;2023-09-19T10:43:34;18.90;99.90
29849;DHT22;16728;50.832;5.590;2023-09-19T10:46:39;19.00;99.90
29849;DHT22;16728;50.832;5.590;2023-09-19T10:49:44;18.90;99.90
29849;DHT22;16728;50.832;5.590;2023-09-19T10:52:51;18.90;99.90
29849;DHT22;16728;50.832;5.590;2023-09-19T10:56:01;18.90;99.90
29849;DHT22;16728;50.832;5.590;2023-09-19T10:59:13;18.90;99.90
29849;DHT22;16728;50.832;5.590;2023-09-19T11:02:17;18.90;99.90
29849;DHT22;16728;50.832;5.590;2023-09-19T11:05:19;19.10;99.90
29849;DHT22;16728;50.832;5.590;2023-09-19T11:08:21;19.20;99.90
29849;DHT22;16728;50.832;5.590;2023-09-19T11:14:44;19.40;99.90
29849;DHT22;16728;50.832;5.590;2023-09-19T11:17:46;19.50;99.90
29849;DHT22;16728;50.832;5.590;2023-09-19T11:20:49;19.50;99.90
29849;DHT22;16728;50.832;5.590;2023-09-19T11:27:24;19.80;99.90
29849;DHT22;16728;50.832;5.590;2023-09-19T11:30:29;19.90;99.90
29849;DHT22;16728;50.832;5.590;2023-09-19T11:33:32;20.00;99.90
29849;DHT22;16728;50.832;5.590;2023-09-19T11:36:43;20.00;99.90
29849;DHT22;16728;50.832;5.590;2023-09-19T11:40:08;20.10;99.90
29849;DHT22;16728;50.832;5.590;2023-09-19T11:43:30;20.10;99.90
29849;DHT22;16728;50.832;5.590;2023-09-19T11:46:53;20.10;99.90
29849;DHT22;16728;50.832;5.590;2023-09-19T11:49:56;20.10;99.90
29849;DHT22;16728;50.832;5.590;2023-09-19T11:53:01;20.20;99.90
29849;DHT22;16728;50.832;5.590;2023-09-19T11:56:06;20.30;99.90
29849;DHT22;16728;50.832;5.590;2023-09-19T11:59:13;20.30;99.90
29849;DHT22;16728;50.832;5.590;2023-09-19T12:02:39;20.40;99.90
29849;DHT22;16728;50.832;5.590;2023-09-19T12:05:43;20.30;99.90
29849;DHT22;16728;50.832;5.590;2023-09-19T12:08:45;20.30;99.90
29849;DHT22;16728;50.832;5.590;2023-09-19T12:11:50;20.40;99.90
29849;DHT22;16728;50.832;5.590;2023-09-19T12:14:54;20.30;99.90
29849;DHT22;16728;50.832;5.590;2023-09-19T12:17:56;20.40;99.90
29849;DHT22;16728;50.832;5.590;2023-09-19T12:20:59;20.50;99.90
29849;DHT22;16728;50.832;5.590;2023-09-19T12:24:06;20.50;99.90
29849;DHT22;16728;50.832;5.590;2023-09-19T12:27:08;20.60;99.90
29849;DHT22;16728;50.832;5.590;2023-09-19T12:30:11;20.70;99.90
29849;DHT22;16728;50.832;5.590;2023-09-19T12:33:28;20.70;99.90
29849;DHT22;16728;50.832;5.590;2023-09-19T12:36:31;20.70;99.90
29849;DHT22;16728;50.832;5.590;2023-09-19T12:39:36;20.70;99.90
29849;DHT22;16728;50.832;5.590;2023-09-19T12:42:38;20.70;99.90
29849;DHT22;16728;50.832;5.590;2023-09-19T12:45:42;20.70;99.90
29849;DHT22;16728;50.832;5.590;2023-09-19T12:48:46;20.70;99.90
29849;DHT22;16728;50.832;5.590;2023-09-19T12:51:55;20.60;99.90
29849;DHT22;16728;50.832;5.590;2023-09-19T12:54:57;20.50;99.90
29849;DHT22;16728;50.832;5.590;2023-09-19T12:58:08;20.50;99.90
29849;DHT22;16728;50.832;5.590;2023-09-19T13:01:14;20.40;99.90
29849;DHT22;16728;50.832;5.590;2023-09-19T13:04:18;20.40;99.90
29849;DHT22;16728;50.832;5.590;2023-09-19T13:07:44;20.30;99.90
29849;DHT22;16728;50.832;5.590;2023-09-19T13:14:20;20.40;99.90
29849;DHT22;16728;50.832;5.590;2023-09-19T13:17:22;20.40;99.90
29849;DHT22;16728;50.832;5.590;2023-09-19T13:20:26;20.40;99.90
29849;DHT22;16728;50.832;5.590;2023-09-19T13:23:34;20.40;99.90
29849;DHT22;16728;50.832;5.590;2023-09-19T13:26:36;20.50;99.90
29849;DHT22;16728;50.832;5.590;2023-09-19T13:29:40;20.50;99.90
29849;DHT22;16728;50.832;5.590;2023-09-19T13:32:42;20.50;99.90
29849;DHT22;16728;50.832;5.590;2023-09-19T13:35:45;20.50;99.90
29849;DHT22;16728;50.832;5.590;2023-09-19T13:38:46;20.50;99.90
29849;DHT22;16728;50.832;5.590;2023-09-19T13:41:51;20.50;99.90
29849;DHT22;16728;50.832;5.590;2023-09-19T13:44:53;20.50;99.90
29849;DHT22;16728;50.832;5.590;2023-09-19T13:47:54;20.50;99.90
29849;DHT22;16728;50.832;5.590;2023-09-19T13:50:57;20.40;99.90
29849;DHT22;16728;50.832;5.590;2023-09-19T13:53:58;20.40;99.90
29849;DHT22;16728;50.832;5.590;2023-09-19T13:57:03;20.40;99.90
29849;DHT22;16728;50.832;5.590;2023-09-19T14:00:08;20.30;99.90
29849;DHT22;16728;50.832;5.590;2023-09-19T14:03:12;20.40;99.90
29849;DHT22;16728;50.832;5.590;2023-09-19T14:06:15;20.30;99.90
29849;DHT22;16728;50.832;5.590;2023-09-19T14:09:18;20.40;99.90
29849;DHT22;16728;50.832;5.590;2023-09-19T14:12:21;20.40;99.90
29849;DHT22;16728;50.832;5.590;2023-09-19T14:15:23;20.50;99.90
29849;DHT22;16728;50.832;5.590;2023-09-19T14:18:32;20.50;99.90
29849;DHT22;16728;50.832;5.590;2023-09-19T14:21:34;20.50;99.90
29849;DHT22;16728;50.832;5.590;2023-09-19T14:24:38;20.50;99.90
29849;DHT22;16728;50.832;5.590;2023-09-19T14:27:39;20.50;99.90
29849;DHT22;16728;50.832;5.590;2023-09-19T14:30:41;20.60;99.90
29849;DHT22;16728;50.832;5.590;2023-09-19T14:33:43;20.50;99.90
29849;DHT22;16728;50.832;5.590;2023-09-19T14:36:46;20.50;99.90
29849;DHT22;16728;50.832;5.590;2023-09-19T14:39:47;20.50;99.90
29849;DHT22;16728;50.832;5.590;2023-09-19T14:42:49;20.50;99.90
29849;DHT22;16728;50.832;5.590;2023-09-19T14:45:53;20.40;99.90
29849;DHT22;16728;50.832;5.590;2023-09-19T14:48:56;20.40;99.90
29849;DHT22;16728;50.832;5.590;2023-09-19T14:52:01;20.30;99.90
29849;DHT22;16728;50.832;5.590;2023-09-19T14:55:07;20.30;99.90
29849;DHT22;16728;50.832;5.590;2023-09-19T14:58:13;20.20;99.90
29849;DHT22;16728;50.832;5.590;2023-09-19T15:01:15;20.10;99.90
29849;DHT22;16728;50.832;5.590;2023-09-19T15:04:17;20.10;99.90
29849;DHT22;16728;50.832;5.590;2023-09-19T15:07:23;20.10;99.90
29849;DHT22;16728;50.832;5.590;2023-09-19T15:10:25;20.10;99.90
29849;DHT22;16728;50.832;5.590;2023-09-19T15:13:27;20.10;99.90
29849;DHT22;16728;50.832;5.590;2023-09-19T15:16:31;20.10;99.90
29849;DHT22;16728;50.832;5.590;2023-09-19T15:19:34;20.10;99.90
29849;DHT22;16728;50.832;5.590;2023-09-19T15:22:36;20.10;99.90
29849;DHT22;16728;50.832;5.590;2023-09-19T15:25:48;20.10;99.90
29849;DHT22;16728;50.832;5.590;2023-09-19T15:28:52;20.10;99.90
29849;DHT22;16728;50.832;5.590;2023-09-19T15:31:56;20.00;99.90
29849;DHT22;16728;50.832;5.590;2023-09-19T15:35:04;20.10;99.90
29849;DHT22;16728;50.832;5.590;2023-09-19T15:38:06;20.10;99.90
29849;DHT22;16728;50.832;5.590;2023-09-19T15:41:12;20.10;99.90
29849;DHT22;16728;50.832;5.590;2023-09-19T15:44:16;20.10;99.90
29849;DHT22;16728;50.832;5.590;2023-09-19T15:47:18;20.00;99.90
29849;DHT22;16728;50.832;5.590;2023-09-19T15:50:21;20.00;99.90
29849;DHT22;16728;50.832;5.590;2023-09-19T15:53:23;20.00;99.90
29849;DHT22;16728;50.832;5.590;2023-09-19T15:56:25;20.00;99.90
29849;DHT22;16728;50.832;5.590;2023-09-19T15:59:28;20.10;99.90
29849;DHT22;16728;50.832;5.590;2023-09-19T16:02:31;20.00;99.90
29849;DHT22;16728;50.832;5.590;2023-09-19T16:05:37;20.00;99.90
29849;DHT22;16728;50.832;5.590;2023-09-19T16:08:41;19.90;99.90
29849;DHT22;16728;50.832;5.590;2023-09-19T16:11:43;20.00;99.90
29849;DHT22;16728;50.832;5.590;2023-09-19T16:14:45;20.00;99.90
29849;DHT22;16728;50.832;5.590;2023-09-19T16:17:48;19.90;99.90
29849;DHT22;16728;50.832;5.590;2023-09-19T16:20:50;19.90;99.90
29849;DHT22;16728;50.832;5.590;2023-09-19T16:23:53;19.90;99.90
29849;DHT22;16728;50.832;5.590;2023-09-19T16:26:57;19.90;99.90
29849;DHT22;16728;50.832;5.590;2023-09-19T16:29:59;19.80;99.90
29849;DHT22;16728;50.832;5.590;2023-09-19T16:33:01;19.80;99.90
29849;DHT22;16728;50.832;5.590;2023-09-19T16:36:11;19.70;99.90
29849;DHT22;16728;50.832;5.590;2023-09-19T16:39:13;19.70;99.90
29849;DHT22;16728;50.832;5.590;2023-09-19T16:42:15;19.60;99.90
29849;DHT22;16728;50.832;5.590;2023-09-19T16:45:22;19.60;99.90
29849;DHT22;16728;50.832;5.590;2023-09-19T16:48:25;19.60;99.90
29849;DHT22;16728;50.832;5.590;2023-09-19T16:51:27;19.60;99.90
29849;DHT22;16728;50.832;5.590;2023-09-19T16:54:30;19.60;99.90
29849;DHT22;16728;50.832;5.590;2023-09-19T16:57:32;19.50;99.90
29849;DHT22;16728;50.832;5.590;2023-09-19T17:00:35;19.50;99.90
29849;DHT22;16728;50.832;5.590;2023-09-19T17:03:38;19.50;99.90
29849;DHT22;16728;50.832;5.590;2023-09-19T17:06:43;19.50;99.90
29849;DHT22;16728;50.832;5.590;2023-09-19T17:09:48;19.50;99.90
29849;DHT22;16728;50.832;5.590;2023-09-19T17:12:50;19.40;99.90
29849;DHT22;16728;50.832;5.590;2023-09-19T17:16:02;19.40;99.90
29849;DHT22;16728;50.832;5.590;2023-09-19T17:19:05;19.40;99.90
29849;DHT22;16728;50.832;5.590;2023-09-19T17:22:07;19.30;99.90
29849;DHT22;16728;50.832;5.590;2023-09-19T17:25:09;19.30;99.90
29849;DHT22;16728;50.832;5.590;2023-09-19T17:28:14;19.30;99.90
29849;DHT22;16728;50.832;5.590;2023-09-19T17:31:21;19.30;99.90
29849;DHT22;16728;50.832;5.590;2023-09-19T17:34:24;19.30;99.90
29849;DHT22;16728;50.832;5.590;2023-09-19T17:37:26;19.30;99.90
29849;DHT22;16728;50.832;5.590;2023-09-19T17:40:28;19.30;99.90
29849;DHT22;16728;50.832;5.590;2023-09-19T17:43:34;19.30;99.90
29849;DHT22;16728;50.832;5.590;2023-09-19T17:46:36;19.30;99.90
29849;DHT22;16728;50.832;5.590;2023-09-19T17:49:40;19.30;99.90
29849;DHT22;16728;50.832;5.590;2023-09-19T17:52:43;19.30;99.90
29849;DHT22;16728;50.832;5.590;2023-09-19T17:55:45;19.30;99.90
29849;DHT22;16728;50.832;5.590;2023-09-19T17:58:48;19.20;99.90
29849;DHT22;16728;50.832;5.590;2023-09-19T18:02:01;19.20;99.90
29849;DHT22;16728;50.832;5.590;2023-09-19T18:05:06;19.20;99.90
29849;DHT22;16728;50.832;5.590;2023-09-19T18:08:18;19.10;99.90
29849;DHT22;16728;50.832;5.590;2023-09-19T18:11:23;19.10;99.90
29849;DHT22;16728;50.832;5.590;2023-09-19T18:14:30;19.10;99.90
29849;DHT22;16728;50.832;5.590;2023-09-19T18:17:35;19.10;99.90
29849;DHT22;16728;50.832;5.590;2023-09-19T18:20:38;19.20;99.90
29849;DHT22;16728;50.832;5.590;2023-09-19T18:23:41;19.10;99.90
29849;DHT22;16728;50.832;5.590;2023-09-19T18:26:43;19.20;99.90
29849;DHT22;16728;50.832;5.590;2023-09-19T18:29:45;19.20;99.90
29849;DHT22;16728;50.832;5.590;2023-09-19T18:32:48;19.20;99.90
29849;DHT22;16728;50.832;5.590;2023-09-19T18:36:04;19.20;99.90
29849;DHT22;16728;50.832;5.590;2023-09-19T18:39:08;19.20;99.90
29849;DHT22;16728;50.832;5.590;2023-09-19T18:42:11;19.20;99.90
29849;DHT22;16728;50.832;5.590;2023-09-19T18:45:13;19.10;99.90
29849;DHT22;16728;50.832;5.590;2023-09-19T18:48:24;19.10;99.90
29849;DHT22;16728;50.832;5.590;2023-09-19T18:51:28;19.10;99.90
29849;DHT22;16728;50.832;5.590;2023-09-19T18:54:30;19.10;99.90
29849;DHT22;16728;50.832;5.590;2023-09-19T18:57:32;19.10;99.90
29849;DHT22;16728;50.832;5.590;2023-09-19T19:00:36;19.10;99.90
29849;DHT22;16728;50.832;5.590;2023-09-19T19:03:38;19.10;99.90
29849;DHT22;16728;50.832;5.590;2023-09-19T19:06:42;19.00;99.90
29849;DHT22;16728;50.832;5.590;2023-09-19T19:09:45;19.00;99.90
29849;DHT22;16728;50.832;5.590;2023-09-19T19:12:47;19.10;99.90
29849;DHT22;16728;50.832;5.590;2023-09-19T19:15:49;19.10;99.90
29849;DHT22;16728;50.832;5.590;2023-09-19T19:18:52;19.00;99.90
29849;DHT22;16728;50.832;5.590;2023-09-19T19:21:55;19.00;99.90
29849;DHT22;16728;50.832;5.590;2023-09-19T19:24:57;19.00;99.90
29849;DHT22;16728;50.832;5.590;2023-09-19T19:27:59;19.00;99.90
29849;DHT22;16728;50.832;5.590;2023-09-19T19:31:01;19.00;99.90
29849;DHT22;16728;50.832;5.590;2023-09-19T19:34:05;19.00;99.90
29849;DHT22;16728;50.832;5.590;2023-09-19T19:37:09;18.90;99.90
29849;DHT22;16728;50.832;5.590;2023-09-19T19:40:13;18.90;99.90
29849;DHT22;16728;50.832;5.590;2023-09-19T19:43:18;18.90;99.90
29849;DHT22;16728;50.832;5.590;2023-09-19T19:46:20;19.00;99.90
29849;DHT22;16728;50.832;5.590;2023-09-19T19:49:22;18.90;99.90
29849;DHT22;16728;50.832;5.590;2023-09-19T19:52:26;18.90;99.90
29849;DHT22;16728;50.832;5.590;2023-09-19T19:55:28;18.90;99.90